createdAt,value
2023-04-15T00:01:13.530Z,101031.38
2023-04-15T00:03:42.313Z,101036.80
2023-04-15T00:06:10.378Z,101034.70
2023-04-15T00:08:38.720Z,101032.79
2023-04-15T00:11:06.898Z,101032.61
2023-04-15T00:13:35.011Z,101029.48
2023-04-15T00:16:02.953Z,101033.31
2023-04-15T00:18:31.887Z,101029.47
2023-04-15T00:21:00.295Z,101026.84
2023-04-15T00:23:28.611Z,101032.25
2023-04-15T00:25:56.961Z,101026.67
2023-04-15T00:28:24.970Z,101022.64
2023-04-15T00:30:53.133Z,101028.06
2023-04-15T00:33:21.586Z,101025.98
2023-04-15T00:35:49.524Z,101026.52
2023-04-15T00:38:19.102Z,101019.79
2023-04-15T00:40:47.158Z,101013.33
2023-04-15T00:43:15.231Z,101005.85
2023-04-15T00:45:43.660Z,101011.97
2023-04-15T00:48:12.480Z,101011.96
2023-04-15T00:50:40.446Z,101019.34
2023-04-15T00:53:08.397Z,101008.52
2023-04-15T00:55:36.509Z,101011.66
2023-04-15T00:58:04.527Z,101015.56
2023-04-15T01:00:32.446Z,101017.02
2023-04-15T01:03:01.042Z,101013.38
2023-04-15T01:05:30.660Z,101012.36
2023-04-15T01:07:58.657Z,101017.46
2023-04-15T01:10:27.598Z,101015.39
2023-04-15T01:12:55.768Z,101014.36
2023-04-15T01:15:24.553Z,101015.95
2023-04-15T01:17:52.874Z,101015.77
2023-04-15T01:20:22.273Z,101016.66
2023-04-15T01:22:51.486Z,101012.30
2023-04-15T01:25:20.770Z,101012.29
2023-04-15T01:27:48.716Z,101017.39
2023-04-15T01:30:17.488Z,101020.03
2023-04-15T01:32:45.519Z,101015.85
2023-04-15T01:35:13.927Z,101013.94
2023-04-15T01:37:42.305Z,101012.02
2023-04-15T01:40:10.481Z,101013.77
2023-04-15T01:42:38.566Z,101009.59
2023-04-15T01:45:07.398Z,101011.84
2023-04-15T01:47:35.463Z,101014.64
2023-04-15T01:50:03.888Z,101015.34
2023-04-15T01:52:32.320Z,101013.23
2023-04-15T01:55:00.245Z,101013.94
2023-04-15T01:57:28.303Z,101015.33
2023-04-15T01:59:56.809Z,101004.84
2023-04-15T02:02:25.041Z,101013.04
2023-04-15T02:04:53.745Z,101014.78
2023-04-15T02:07:22.000Z,101019.83
2023-04-15T02:09:50.003Z,101018.41
2023-04-15T02:12:17.953Z,101014.90
2023-04-15T02:14:46.450Z,101012.95
2023-04-15T02:17:14.412Z,101014.69
2023-04-15T02:19:44.632Z,101010.30
2023-04-15T02:22:18.731Z,101007.48
2023-04-15T02:24:47.630Z,101007.32
2023-04-15T02:27:16.917Z,101008.54
2023-04-15T02:29:46.069Z,101006.96
2023-04-15T02:32:14.202Z,101006.97
2023-04-15T02:34:43.205Z,100998.23
2023-04-15T02:37:13.105Z,101001.88
2023-04-15T02:39:41.182Z,101006.59
2023-04-15T02:42:09.148Z,101007.98
2023-04-15T02:44:37.828Z,101007.29
2023-04-15T02:47:07.376Z,101003.95
2023-04-15T02:49:35.475Z,101009.52
2023-04-15T02:52:03.578Z,101005.15
2023-04-15T02:54:33.066Z,101006.02
2023-04-15T02:57:01.808Z,101005.15
2023-04-15T02:59:29.769Z,101002.89
2023-04-15T03:02:01.183Z,101001.30
2023-04-15T03:04:32.529Z,101009.34
2023-04-15T03:07:01.907Z,101006.75
2023-04-15T03:09:30.482Z,101008.48
2023-04-15T03:11:59.708Z,101008.13
2023-04-15T03:14:27.778Z,101002.89
2023-04-15T03:16:56.211Z,101011.77
2023-04-15T03:19:25.256Z,101010.55
2023-04-15T03:21:53.217Z,101009.67
2023-04-15T03:24:21.292Z,101008.41
2023-04-15T03:26:49.325Z,101017.66
2023-04-15T03:29:18.038Z,101012.63
2023-04-15T03:31:46.535Z,101020.14
2023-04-15T03:34:14.488Z,101018.60
2023-04-15T03:36:42.809Z,101018.23
2023-04-15T03:39:10.811Z,101014.05
2023-04-15T03:41:38.748Z,101017.18
2023-04-15T03:44:06.885Z,101016.85
2023-04-15T03:46:34.997Z,101024.91
2023-04-15T03:49:03.343Z,101020.93
2023-04-15T03:51:31.871Z,101026.20
2023-04-15T03:53:59.880Z,101019.70
2023-04-15T03:56:28.081Z,101022.13
2023-04-15T03:58:56.326Z,101018.64
2023-04-15T04:01:24.397Z,101022.86
2023-04-15T04:03:52.568Z,101022.50
2023-04-15T04:06:20.752Z,101025.81
2023-04-15T04:08:48.817Z,101026.86
2023-04-15T04:11:17.360Z,101030.17
2023-04-15T04:13:45.580Z,101029.15
2023-04-15T04:16:13.670Z,101039.27
2023-04-15T04:18:41.624Z,101036.29
2023-04-15T04:21:09.691Z,101033.52
2023-04-15T04:23:37.669Z,101036.49
2023-04-15T04:26:05.711Z,101038.94
2023-04-15T04:28:33.650Z,101035.77
2023-04-15T04:31:01.870Z,101037.17
2023-04-15T04:33:29.836Z,101046.59
2023-04-15T04:35:57.771Z,101041.67
2023-04-15T04:38:26.167Z,101042.36
2023-04-15T04:40:54.237Z,101040.64
2023-04-15T04:43:22.693Z,101044.63
2023-04-15T04:45:50.740Z,101043.06
2023-04-15T04:48:18.803Z,101041.27
2023-04-15T04:50:47.338Z,101048.75
2023-04-15T04:53:15.404Z,101043.48
2023-04-15T04:55:43.348Z,101040.80
2023-04-15T04:58:11.855Z,101045.63
2023-04-15T05:00:41.314Z,101043.92
2023-04-15T05:03:09.832Z,101045.52
2023-04-15T05:05:39.747Z,101040.20
2023-04-15T05:08:07.816Z,101043.39
2023-04-15T05:10:36.517Z,101046.46
2023-04-15T05:13:04.691Z,101044.02
2023-04-15T05:15:33.578Z,101043.09
2023-04-15T05:18:01.712Z,101053.55
2023-04-15T05:20:30.026Z,101047.13
2023-04-15T05:22:57.946Z,101040.11
2023-04-15T05:25:26.220Z,101042.06
2023-04-15T05:27:54.114Z,101038.78
2023-04-15T05:30:22.804Z,101046.04
2023-04-15T05:32:51.137Z,101039.25
2023-04-15T05:35:19.335Z,101048.02
2023-04-15T05:37:47.874Z,101039.30
2023-04-15T05:40:16.428Z,101047.98
2023-04-15T05:42:44.393Z,101047.27
2023-04-15T05:45:12.397Z,101050.88
2023-04-15T05:47:40.487Z,101057.99
2023-04-15T05:50:09.501Z,101057.27
2023-04-15T05:52:37.471Z,101055.05
2023-04-15T05:55:06.414Z,101049.55
2023-04-15T05:57:34.349Z,101060.95
2023-04-15T06:00:02.312Z,101051.66
2023-04-15T06:02:37.925Z,101057.92
2023-04-15T06:05:10.918Z,101059.55
2023-04-15T06:07:39.133Z,101048.85
2023-04-15T06:10:08.030Z,101051.65
2023-04-15T06:12:36.283Z,101044.02
2023-04-15T06:15:06.767Z,101041.46
2023-04-15T06:17:34.828Z,101049.38
2023-04-15T06:20:03.865Z,101050.02
2023-04-15T06:22:31.877Z,101059.88
2023-04-15T06:24:59.943Z,101056.98
2023-04-15T06:27:27.889Z,101057.80
2023-04-15T06:29:55.888Z,101059.83
2023-04-15T06:32:23.852Z,101058.02
2023-04-15T06:34:51.838Z,101061.82
2023-04-15T06:37:19.871Z,101059.63
2023-04-15T06:39:48.035Z,101059.33
2023-04-15T06:42:16.314Z,101066.92
2023-04-15T06:44:44.384Z,101058.31
2023-04-15T06:47:14.805Z,101057.95
2023-04-15T06:49:43.283Z,101064.70
2023-04-15T06:52:11.564Z,101063.87
2023-04-15T06:54:39.566Z,101067.84
2023-04-15T06:57:08.020Z,101074.76
2023-04-15T06:59:36.294Z,101087.71
2023-04-15T07:02:05.012Z,101078.21
2023-04-15T07:04:33.788Z,101076.87
2023-04-15T07:07:02.857Z,101092.58
2023-04-15T07:09:31.642Z,101094.35
2023-04-15T07:11:59.718Z,101090.40
2023-04-15T07:14:28.090Z,101106.02
2023-04-15T07:16:56.558Z,101107.15
2023-04-15T07:19:24.700Z,101095.70
2023-04-15T07:21:52.724Z,101091.19
2023-04-15T07:24:20.837Z,101095.64
2023-04-15T07:26:48.961Z,101097.23
2023-04-15T07:29:17.334Z,101091.42
2023-04-15T07:31:45.296Z,101094.64
2023-04-15T07:34:13.304Z,101093.42
2023-04-15T07:36:41.275Z,101094.02
2023-04-15T07:39:09.309Z,101095.21
2023-04-15T07:41:37.517Z,101093.64
2023-04-15T07:44:05.576Z,101096.71
2023-04-15T07:46:33.691Z,101103.63
2023-04-15T07:49:02.040Z,101115.45
2023-04-15T07:51:30.780Z,101113.26
2023-04-15T07:53:59.172Z,101101.52
2023-04-15T07:56:27.307Z,101105.85
2023-04-15T07:58:55.277Z,101109.39
2023-04-15T08:01:23.243Z,101104.42
2023-04-15T08:03:51.785Z,101107.35
2023-04-15T08:06:19.936Z,101108.58
2023-04-15T08:08:48.353Z,101102.87
2023-04-15T08:11:16.381Z,101104.23
2023-04-15T08:13:44.341Z,101107.55
2023-04-15T08:16:14.669Z,101120.27
2023-04-15T08:18:42.696Z,101114.83
2023-04-15T08:21:11.410Z,101116.31
2023-04-15T08:23:39.623Z,101115.68
2023-04-15T08:26:08.835Z,101116.97
2023-04-15T08:28:40.135Z,101128.35
2023-04-15T08:31:09.620Z,101122.09
2023-04-15T08:33:37.774Z,101123.60
2023-04-15T08:36:06.813Z,101127.25
2023-04-15T08:38:35.218Z,101121.17
2023-04-15T08:41:13.597Z,101122.93
2023-04-15T08:43:49.549Z,101115.29
2023-04-15T08:46:18.001Z,101120.00
2023-04-15T08:48:48.186Z,101121.52
2023-04-15T08:51:17.888Z,101122.16
2023-04-15T08:53:47.553Z,101123.14
2023-04-15T08:56:16.979Z,101122.92
2023-04-15T08:58:46.667Z,101134.34
2023-04-15T09:01:15.208Z,101120.92
2023-04-15T09:03:44.144Z,101120.67
2023-04-15T09:06:12.467Z,101114.98
2023-04-15T09:08:40.709Z,101129.80
2023-04-15T09:11:08.856Z,101124.56
2023-04-15T09:13:37.256Z,101124.54
2023-04-15T09:16:06.477Z,101128.54
2023-04-15T09:18:36.271Z,101116.97
2023-04-15T09:21:09.663Z,101119.48
2023-04-15T09:23:40.100Z,101121.88
2023-04-15T09:26:08.564Z,101121.25
2023-04-15T09:28:43.649Z,101133.52
2023-04-15T09:31:12.242Z,101121.59
2023-04-15T09:33:56.504Z,101121.44
2023-04-15T09:36:25.316Z,101120.77
2023-04-15T09:38:59.366Z,101124.20
2023-04-15T09:41:28.738Z,101121.95
2023-04-15T09:43:56.901Z,101132.68
2023-04-15T09:46:44.539Z,101128.02
2023-04-15T09:49:13.617Z,101124.85
2023-04-15T09:51:43.401Z,101130.89
2023-04-15T09:54:22.589Z,101135.89
2023-04-15T09:56:50.637Z,101139.41
2023-04-15T09:59:20.102Z,101141.25
2023-04-15T10:01:49.386Z,101143.16
2023-04-15T10:04:18.233Z,101161.54
2023-04-15T10:06:47.426Z,101151.72
2023-04-15T10:09:15.367Z,101146.30
2023-04-15T10:11:44.412Z,101145.31
2023-04-15T10:14:16.121Z,101151.19
2023-04-15T10:16:49.173Z,101149.98
2023-04-15T10:19:22.009Z,101162.09
2023-04-15T10:21:50.797Z,101159.90
2023-04-15T10:24:19.644Z,101159.23
2023-04-15T10:26:48.129Z,101153.53
2023-04-15T10:29:17.062Z,101154.15
2023-04-15T10:31:45.520Z,101156.22
2023-04-15T10:34:14.156Z,101156.09
2023-04-15T10:36:42.133Z,101157.23
2023-04-15T10:39:55.271Z,101163.54
2023-04-15T10:42:23.290Z,101161.19
2023-04-15T10:44:57.297Z,101158.30
2023-04-15T10:47:25.695Z,101151.19
2023-04-15T10:50:02.624Z,101153.85
2023-04-15T10:52:30.657Z,101144.77
2023-04-15T10:55:10.814Z,101146.80
2023-04-15T10:57:40.480Z,101145.88
2023-04-15T11:00:09.094Z,101142.77
2023-04-15T11:02:47.746Z,101152.40
2023-04-15T11:05:17.807Z,101147.98
2023-04-15T11:07:52.348Z,101146.87
2023-04-15T11:10:26.333Z,101147.35
2023-04-15T11:12:59.441Z,101153.92
2023-04-15T11:15:41.772Z,101153.64
2023-04-15T11:18:20.420Z,101152.72
2023-04-15T11:20:50.843Z,101159.33
2023-04-15T11:23:20.674Z,101167.97
2023-04-15T11:25:48.922Z,101166.65
2023-04-15T11:28:16.877Z,101167.06
2023-04-15T11:30:45.000Z,101163.27
2023-04-15T11:33:14.012Z,101171.58
2023-04-15T11:35:42.464Z,101168.83
2023-04-15T11:38:13.061Z,101167.65
2023-04-15T11:40:44.562Z,101169.09
2023-04-15T11:43:18.713Z,101178.95
2023-04-15T11:45:57.126Z,101186.04
2023-04-15T11:48:33.507Z,101182.31
2023-04-15T11:51:07.041Z,101186.05
2023-04-15T11:53:47.210Z,101184.69
2023-04-15T11:56:25.158Z,101186.61
2023-04-15T11:58:57.383Z,101185.14
2023-04-15T12:01:46.945Z,101197.89
2023-04-15T12:04:20.885Z,101193.05
2023-04-15T12:06:51.285Z,101196.80
2023-04-15T12:09:20.520Z,101205.07
2023-04-15T12:11:48.584Z,101200.52
2023-04-15T12:14:29.545Z,101209.48
2023-04-15T12:17:03.662Z,101210.21
2023-04-15T12:19:42.434Z,101211.95
2023-04-15T12:22:15.740Z,101217.96
2023-04-15T12:24:47.972Z,101219.91
2023-04-15T12:27:17.686Z,101224.50
2023-04-15T12:29:45.808Z,101218.08
2023-04-15T12:32:19.929Z,101222.30
2023-04-15T12:34:52.510Z,101223.15
2023-04-15T12:37:21.268Z,101224.16
2023-04-15T12:39:50.631Z,101225.02
2023-04-15T12:42:19.124Z,101222.24
2023-04-15T12:44:47.479Z,101222.23
2023-04-15T12:47:16.128Z,101219.77
2023-04-15T12:49:44.191Z,101227.50
2023-04-15T12:52:12.171Z,101230.31
2023-04-15T12:54:40.111Z,101240.51
2023-04-15T12:57:08.381Z,101239.11
2023-04-15T12:59:36.679Z,101237.73
2023-04-15T13:02:04.907Z,101237.88
2023-04-15T13:04:33.335Z,101233.13
2023-04-15T13:07:02.470Z,101235.00
2023-04-15T13:09:31.753Z,101238.83
2023-04-15T13:11:59.885Z,101239.48
2023-04-15T13:14:27.842Z,101235.44
2023-04-15T13:16:56.015Z,101237.16
2023-04-15T13:19:23.997Z,101238.39
2023-04-15T13:21:51.974Z,101243.68
2023-04-15T13:24:20.036Z,101241.08
2023-04-15T13:26:50.142Z,101244.70
2023-04-15T13:29:18.944Z,101240.84
2023-04-15T13:31:47.104Z,101235.02
2023-04-15T13:34:15.051Z,101241.45
2023-04-15T13:36:43.062Z,101239.30
2023-04-15T13:39:11.171Z,101246.29
2023-04-15T13:41:39.194Z,101246.44
2023-04-15T13:44:07.313Z,101243.00
2023-04-15T13:46:35.669Z,101246.69
2023-04-15T13:49:03.642Z,101239.83
2023-04-15T13:51:32.073Z,101250.00
2023-04-15T13:54:00.013Z,101243.70
2023-04-15T13:56:27.951Z,101245.61
2023-04-15T13:58:59.094Z,101244.71
2023-04-15T14:01:27.475Z,101249.77
2023-04-15T14:03:56.248Z,101253.98
2023-04-15T14:06:24.913Z,101249.09
2023-04-15T14:08:53.260Z,101256.24
2023-04-15T14:11:21.205Z,101260.20
2023-04-15T14:13:49.147Z,101263.95
2023-04-15T14:16:17.120Z,101259.21
2023-04-15T14:18:45.364Z,101261.13
2023-04-15T14:21:13.422Z,101272.50
2023-04-15T14:23:41.457Z,101273.21
2023-04-15T14:26:09.480Z,101274.63
2023-04-15T14:28:39.217Z,101276.59
2023-04-15T14:31:07.579Z,101285.77
2023-04-15T14:33:35.617Z,101285.80
2023-04-15T14:36:04.153Z,101284.45
2023-04-15T14:38:33.918Z,101280.92
2023-04-15T14:41:02.214Z,101290.20
2023-04-15T14:43:30.257Z,101293.55
2023-04-15T14:45:58.306Z,101297.39
2023-04-15T14:48:26.591Z,101307.02
2023-04-15T14:50:54.678Z,101295.96
2023-04-15T14:53:22.610Z,101309.83
2023-04-15T14:55:50.616Z,101309.31
2023-04-15T14:58:20.411Z,101309.83
2023-04-15T15:00:48.494Z,101311.54
2023-04-15T15:03:16.882Z,101319.72
2023-04-15T15:05:47.025Z,101314.77
2023-04-15T15:08:15.507Z,101318.43
2023-04-15T15:10:48.524Z,101331.38
2023-04-15T15:13:19.098Z,101327.77
2023-04-15T15:15:49.871Z,101329.66
2023-04-15T15:18:19.424Z,101339.00
2023-04-15T15:20:47.933Z,101338.17
2023-04-15T15:23:16.186Z,101335.88
2023-04-15T15:25:45.908Z,101339.21
2023-04-15T15:28:14.073Z,101349.40
2023-04-15T15:30:42.135Z,101348.77
2023-04-15T15:33:10.085Z,101356.67
2023-04-15T15:35:38.174Z,101354.95
2023-04-15T15:38:06.505Z,101354.98
2023-04-15T15:40:34.531Z,101355.53
2023-04-15T15:43:03.105Z,101359.40
2023-04-15T15:45:31.254Z,101360.13
2023-04-15T15:48:00.391Z,101362.21
2023-04-15T15:50:28.528Z,101360.29
2023-04-15T15:52:56.593Z,101368.33
2023-04-15T15:55:26.023Z,101368.52
2023-04-15T15:57:54.567Z,101366.45
2023-04-15T16:00:23.368Z,101367.33
2023-04-15T16:03:06.847Z,101369.08
2023-04-15T16:05:36.548Z,101373.42
2023-04-15T16:08:05.068Z,101382.52
2023-04-15T16:10:33.358Z,101383.93
2023-04-15T16:13:02.158Z,101387.09
2023-04-15T16:15:30.330Z,101392.36
2023-04-15T16:17:58.366Z,101386.25
2023-04-15T16:20:28.378Z,101390.45
2023-04-15T16:22:58.464Z,101392.18
2023-04-15T16:25:26.757Z,101393.59
2023-04-15T16:28:05.394Z,101397.61
2023-04-15T16:30:38.883Z,101402.17
2023-04-15T16:33:07.572Z,101405.67
2023-04-15T16:35:35.588Z,101408.47
2023-04-15T16:38:03.765Z,101410.91
2023-04-15T16:40:31.844Z,101416.16
2023-04-15T16:42:59.799Z,101416.52
2023-04-15T16:45:27.767Z,101420.18
2023-04-15T16:47:57.057Z,101422.97
2023-04-15T16:50:25.248Z,101424.55
2023-04-15T16:52:53.420Z,101423.67
2023-04-15T16:55:21.637Z,101426.98
2023-04-15T16:58:01.507Z,101433.63
2023-04-15T17:00:37.096Z,101431.88
2023-04-15T17:03:06.288Z,101432.05
2023-04-15T17:05:34.758Z,101438.86
2023-04-15T17:08:02.730Z,101438.70
2023-04-15T17:10:31.362Z,101441.84
2023-04-15T17:12:59.970Z,101442.89
2023-04-15T17:15:27.941Z,101445.15
2023-04-15T17:17:56.029Z,101444.64
2023-04-15T17:20:24.153Z,101449.52
2023-04-15T17:22:52.254Z,101449.34
2023-04-15T17:25:20.349Z,101456.84
2023-04-15T17:27:48.265Z,101455.61
2023-04-15T17:30:16.263Z,101461.36
2023-04-15T17:32:44.406Z,101464.49
2023-04-15T17:35:12.357Z,101462.76
2023-04-15T17:37:40.506Z,101467.47
2023-04-15T17:40:09.194Z,101470.09
2023-04-15T17:42:37.199Z,101475.32
2023-04-15T17:45:05.877Z,101474.61
2023-04-15T17:47:33.937Z,101475.48
2023-04-15T17:50:01.912Z,101478.45
2023-04-15T17:52:29.898Z,101481.75
2023-04-15T17:54:57.785Z,101482.80
2023-04-15T17:57:25.755Z,101489.42
2023-04-15T17:59:53.850Z,101491.88
2023-04-15T18:02:21.969Z,101492.92
2023-04-15T18:04:50.316Z,101500.42
2023-04-15T18:07:18.477Z,101502.88
2023-04-15T18:09:46.607Z,101504.97
2023-04-15T18:12:14.613Z,101509.15
2023-04-15T18:14:42.674Z,101510.00
2023-04-15T18:17:11.346Z,101515.23
2023-04-15T18:19:39.254Z,101519.89
2023-04-15T18:22:07.378Z,101516.22
2023-04-15T18:24:35.545Z,101520.23
2023-04-15T18:27:04.087Z,101520.40
2023-04-15T18:29:32.124Z,101526.84
2023-04-15T18:32:03.101Z,101525.45
2023-04-15T18:34:31.335Z,101522.11
2023-04-15T18:36:59.434Z,101529.06
2023-04-15T18:39:27.898Z,101533.23
2023-04-15T18:41:57.398Z,101535.82
2023-04-15T18:44:25.456Z,101535.80
2023-04-15T18:46:53.448Z,101532.11
2023-04-15T18:49:21.512Z,101535.58
2023-04-15T18:51:49.715Z,101544.75
2023-04-15T18:54:17.746Z,101541.08
2023-04-15T18:56:45.919Z,101547.70
2023-04-15T18:59:29.106Z,101548.91
2023-04-15T19:02:00.165Z,101552.34
2023-04-15T19:04:31.065Z,101556.67
2023-04-15T19:06:59.387Z,101560.99
2023-04-15T19:09:29.401Z,101565.83
2023-04-15T19:11:57.789Z,101568.27
2023-04-15T19:14:25.973Z,101568.60
2023-04-15T19:16:54.099Z,101571.70
2023-04-15T19:19:22.273Z,101569.61
2023-04-15T19:21:50.590Z,101573.25
2023-04-15T19:24:19.455Z,101573.09
2023-04-15T19:26:49.026Z,101577.43
2023-04-15T19:29:17.734Z,101579.71
2023-04-15T19:31:45.778Z,101579.38
2023-04-15T19:34:13.769Z,101575.19
2023-04-15T19:36:42.186Z,101580.06
2023-04-15T19:39:10.434Z,101580.90
2023-04-15T19:41:39.454Z,101582.81
2023-04-15T19:44:07.515Z,101584.52
2023-04-15T19:46:35.841Z,101584.52
2023-04-15T19:49:04.366Z,101585.23
2023-04-15T19:51:32.590Z,101587.30
2023-04-15T19:54:00.940Z,101586.59
2023-04-15T19:56:29.539Z,101589.04
2023-04-15T19:58:57.700Z,101583.27
2023-04-15T20:01:26.016Z,101589.20
2023-04-15T20:03:54.700Z,101584.02
2023-04-15T20:06:22.894Z,101583.52
2023-04-15T20:08:50.941Z,101579.20
2023-04-15T20:11:19.224Z,101579.73
2023-04-15T20:13:47.242Z,101580.42
2023-04-15T20:16:15.214Z,101580.95
2023-04-15T20:18:43.272Z,101581.30
2023-04-15T20:21:11.238Z,101583.74
2023-04-15T20:23:40.124Z,101584.42
2023-04-15T20:26:08.302Z,101582.69
2023-04-15T20:28:36.271Z,101582.34
2023-04-15T20:31:04.307Z,101582.69
2023-04-15T20:33:32.410Z,101582.45
2023-04-15T20:36:00.491Z,101581.36
2023-04-15T20:38:28.650Z,101579.92
2023-04-15T20:40:57.955Z,101582.83
2023-04-15T20:43:26.329Z,101580.18
2023-04-15T20:45:57.523Z,101578.89
2023-04-15T20:48:25.854Z,101576.05
2023-04-15T20:50:53.795Z,101575.48
2023-04-15T20:53:22.101Z,101569.71
2023-04-15T20:55:50.140Z,101569.70
2023-04-15T20:58:18.140Z,101571.61
2023-04-15T21:00:46.562Z,101573.27
2023-04-15T21:03:14.737Z,101576.39
2023-04-15T21:05:42.859Z,101578.96
2023-04-15T21:08:10.810Z,101581.05
2023-04-15T21:10:40.228Z,101581.59
2023-04-15T21:13:08.413Z,101584.18
2023-04-15T21:15:36.550Z,101583.48
2023-04-15T21:18:04.470Z,101587.81
2023-04-15T21:20:32.369Z,101590.60
2023-04-15T21:23:00.376Z,101593.23
2023-04-15T21:25:28.341Z,101593.27
2023-04-15T21:27:56.300Z,101603.55
2023-04-15T21:30:24.268Z,101607.67
2023-04-15T21:32:52.402Z,101607.53
2023-04-15T21:35:20.419Z,101612.80
2023-04-15T21:37:48.388Z,101609.20
2023-04-15T21:40:16.468Z,101612.91
2023-04-15T21:42:44.627Z,101620.61
2023-04-15T21:45:12.710Z,101620.13
2023-04-15T21:48:05.320Z,101621.38
2023-04-15T21:50:28.552Z,101623.98
2023-04-15T21:52:56.778Z,101621.20
2023-04-15T21:55:24.884Z,101622.08
2023-04-15T21:57:52.880Z,101623.66
2023-04-15T22:00:23.145Z,101624.86
2023-04-15T22:02:52.270Z,101628.69
2023-04-15T22:05:20.614Z,101628.00
2023-04-15T22:07:48.635Z,101626.48
2023-04-15T22:10:16.863Z,101632.23
2023-04-15T22:12:44.778Z,101631.71
2023-04-15T22:15:12.853Z,101634.88
2023-04-15T22:17:40.897Z,101635.57
2023-04-15T22:20:09.633Z,101640.62
2023-04-15T22:22:44.134Z,101643.23
2023-04-15T22:25:12.786Z,101646.33
2023-04-15T22:27:41.066Z,101643.19
2023-04-15T22:30:10.625Z,101650.34
2023-04-15T22:32:38.749Z,101650.52
2023-04-15T22:35:07.594Z,101649.48
2023-04-15T22:37:35.707Z,101650.88
2023-04-15T22:40:03.930Z,101654.85
2023-04-15T22:42:32.118Z,101660.05
2023-04-15T22:45:00.099Z,101657.05
2023-04-15T22:47:28.275Z,101659.63
2023-04-15T22:49:56.326Z,101661.36
2023-04-15T22:52:30.632Z,101657.17
2023-04-15T22:54:59.790Z,101660.64
2023-04-15T22:57:28.732Z,101655.52
2023-04-15T22:59:56.856Z,101655.77
2023-04-15T23:02:24.883Z,101652.45
2023-04-15T23:04:53.332Z,101651.41
2023-04-15T23:07:21.445Z,101651.06
2023-04-15T23:09:49.571Z,101651.59
2023-04-15T23:12:17.761Z,101655.11
2023-04-15T23:14:45.857Z,101651.11
2023-04-15T23:17:13.808Z,101653.05
2023-04-15T23:19:41.726Z,101656.20
2023-04-15T23:22:12.230Z,101655.35
2023-04-15T23:24:40.212Z,101658.30
2023-04-15T23:27:08.170Z,101655.30
2023-04-15T23:29:36.497Z,101657.36
2023-04-15T23:32:04.761Z,101659.45
2023-04-15T23:34:32.806Z,101658.86
2023-04-15T23:37:01.148Z,101661.81
2023-04-15T23:39:30.604Z,101662.48
2023-04-15T23:41:58.562Z,101662.67
2023-04-15T23:44:27.150Z,101661.11
2023-04-15T23:46:55.206Z,101664.23
2023-04-15T23:49:23.351Z,101665.41
2023-04-15T23:51:51.470Z,101666.42
2023-04-15T23:54:19.425Z,101663.80
2023-04-15T23:56:48.254Z,101663.44
2023-04-15T23:59:16.444Z,101660.79
